createdAt,value
2023-02-03T00:02:47.024Z,4105.9
2023-02-03T00:08:22.172Z,4108.3
2023-02-03T00:14:04.722Z,4106.3
2023-02-03T00:19:39.596Z,4107.1
2023-02-03T00:25:14.720Z,4105.9
2023-02-03T00:30:50.391Z,4104.3
2023-02-03T00:36:25.049Z,4104.1
2023-02-03T00:42:00.152Z,4104.1
2023-02-03T00:47:36.751Z,4101.1
2023-02-03T00:53:11.793Z,4103.2
2023-02-03T00:58:46.686Z,4103.9
2023-02-03T01:04:29.145Z,4105.4
2023-02-03T01:10:03.988Z,4101.9
2023-02-03T01:15:40.947Z,4105.8
2023-02-03T01:21:37.069Z,4104.4
2023-02-03T01:27:12.355Z,4099.6
2023-02-03T01:32:53.855Z,4101.4
2023-02-03T01:38:29.656Z,4101.2
2023-02-03T01:44:07.144Z,4098.2
2023-02-03T01:49:47.356Z,4098.6
2023-02-03T01:55:23.634Z,4098.2
2023-02-03T02:00:59.782Z,4097.9
2023-02-03T02:06:40.741Z,4096.2
2023-02-03T02:12:15.902Z,4096.5
2023-02-03T02:17:50.947Z,4099.7
2023-02-03T02:23:27.864Z,4097.7
2023-02-03T02:29:16.521Z,4098.6
2023-02-03T02:34:59.842Z,4096.4
2023-02-03T02:40:37.437Z,4097.2
2023-02-03T02:46:28.155Z,4097.7
2023-02-03T02:52:03.325Z,4093.7
2023-02-03T02:57:56.516Z,4095.4
2023-02-03T03:03:42.001Z,4094.4
2023-02-03T03:09:17.082Z,4093.4
2023-02-03T03:14:55.222Z,4091.5
2023-02-03T03:20:31.606Z,4093.2
2023-02-03T03:26:06.568Z,4091.2
2023-02-03T03:31:43.025Z,4090.9
2023-02-03T03:37:20.016Z,4094.5
2023-02-03T03:42:55.945Z,4093
2023-02-03T03:48:57.058Z,4091.9
2023-02-03T03:54:32.351Z,4090.4
2023-02-03T04:00:12.593Z,4089.2
2023-02-03T04:05:58.508Z,4089.7
2023-02-03T04:11:34.108Z,4088.5
2023-02-03T04:17:11.092Z,4088.5
2023-02-03T04:22:46.243Z,4089.5
2023-02-03T04:28:24.814Z,4089.8
2023-02-03T04:34:02.232Z,4091
2023-02-03T04:39:38.330Z,4085.5
2023-02-03T04:45:14.897Z,4086.7
2023-02-03T04:50:49.984Z,4087
2023-02-03T04:56:24.667Z,4085.7
2023-02-03T05:01:59.544Z,4086.3
2023-02-03T05:07:46.535Z,4088.5
2023-02-03T05:13:25.294Z,4084.2
2023-02-03T05:19:25.479Z,4088.2
2023-02-03T05:25:04.380Z,4083.8
2023-02-03T05:31:01.322Z,4082.6
2023-02-03T05:36:38.275Z,4083.3
2023-02-03T05:42:13.183Z,4082.5
2023-02-03T05:47:47.755Z,4081.5
2023-02-03T05:53:22.741Z,4080.6
2023-02-03T05:58:58.622Z,4080.3
2023-02-03T06:04:34.477Z,4080.8
2023-02-03T06:10:34.056Z,4077.5
2023-02-03T06:16:09.224Z,4080
2023-02-03T06:21:43.959Z,4077.8
2023-02-03T06:27:26.805Z,4078.3
2023-02-03T06:33:03.021Z,4077.6
2023-02-03T06:38:40.711Z,4078.1
2023-02-03T06:44:15.993Z,4074.4
2023-02-03T06:49:50.702Z,4074.3
2023-02-03T06:55:26.134Z,4076.3
2023-02-03T07:01:02.286Z,4077.6
2023-02-03T07:06:58.309Z,4075.3
2023-02-03T07:12:41.459Z,4079.1
2023-02-03T07:18:49.409Z,4071.9
2023-02-03T07:24:25.259Z,4072.6
2023-02-03T07:30:14.138Z,4067.4
2023-02-03T07:35:50.113Z,4066.1
2023-02-03T07:41:37.753Z,4073.8
2023-02-03T07:47:32.738Z,4084
2023-02-03T07:53:25.379Z,4090.7
2023-02-03T07:59:24.712Z,4094.7
2023-02-03T08:05:06.655Z,4093.9
2023-02-03T08:10:47.415Z,4110.5
2023-02-03T08:16:23.113Z,4101.9
2023-02-03T08:21:58.716Z,4110.1
2023-02-03T08:27:37.766Z,4182.3
2023-02-03T08:33:13.250Z,4180.8
2023-02-03T08:38:54.094Z,4175.3
2023-02-03T08:44:48.990Z,4164.6
2023-02-03T08:50:30.382Z,4160.4
2023-02-03T08:56:10.189Z,4191.5
2023-02-03T09:02:01.344Z,4164
2023-02-03T09:07:42.723Z,4161
2023-02-03T09:13:18.148Z,4178.5
2023-02-03T09:18:53.682Z,4179
2023-02-03T09:24:29.606Z,4185
2023-02-03T09:30:04.922Z,4164.4
2023-02-03T09:35:40.796Z,4196.2
2023-02-03T09:41:17.487Z,4163.4
2023-02-03T09:47:14.944Z,4180.3
2023-02-03T09:52:48.584Z,4167.6
2023-02-03T09:58:25.627Z,4191.9
2023-02-03T10:04:01.333Z,4193
2023-02-03T10:09:49.875Z,4177.1
2023-02-03T10:15:26.076Z,4195.9
2023-02-03T10:21:49.564Z,4190
2023-02-03T10:27:39.249Z,4205.6
2023-02-03T10:33:15.077Z,4182.8
2023-02-03T10:38:56.592Z,4172.9
2023-02-03T10:44:31.983Z,4199.1
2023-02-03T10:50:17.057Z,4198.4
2023-02-03T10:56:09.841Z,4199.9
2023-02-03T11:01:47.743Z,4209.3
2023-02-03T11:07:22.604Z,4180.1
2023-02-03T11:13:18.735Z,4191
2023-02-03T11:18:54.688Z,4197.2
2023-02-03T11:24:44.131Z,4173.6
2023-02-03T11:30:24.930Z,4202.7
2023-02-03T11:36:17.333Z,4201.6
2023-02-03T11:41:59.409Z,4212.3
2023-02-03T11:48:04.005Z,4207.3
2023-02-03T11:53:59.858Z,4204.3
2023-02-03T11:59:41.858Z,4184.1
2023-02-03T12:05:28.403Z,4188
2023-02-03T12:11:04.970Z,4201.2
2023-02-03T12:16:41.101Z,4188.2
2023-02-03T12:22:25.775Z,4190.3
2023-02-03T12:28:02.239Z,4189.8
2023-02-03T12:33:38.453Z,4189.7
2023-02-03T12:39:13.639Z,4216
2023-02-03T12:44:49.451Z,4198.9
2023-02-03T12:50:29.600Z,4196.5
2023-02-03T12:56:05.342Z,4205.9
2023-02-03T13:02:09.578Z,4206.9
2023-02-03T13:07:53.412Z,4210.3
2023-02-03T13:13:29.147Z,4205.1
2023-02-03T13:19:05.697Z,4203.6
2023-02-03T13:24:44.022Z,4218.8
2023-02-03T13:30:21.411Z,4220.7
2023-02-03T13:35:56.627Z,4213.3
2023-02-03T13:41:47.193Z,4192
2023-02-03T13:47:22.528Z,4211.8
2023-02-03T13:53:06.828Z,4217.5
2023-02-03T13:58:42.560Z,4203.4
2023-02-03T14:04:18.896Z,4215.5
2023-02-03T14:10:36.477Z,4204.8
2023-02-03T14:16:12.766Z,4214
2023-02-03T14:21:47.995Z,4212
2023-02-03T14:27:26.598Z,4200.6
2023-02-03T14:33:23.883Z,4203.2
2023-02-03T14:39:00.413Z,4219.7
2023-02-03T14:44:45.641Z,4203.9
2023-02-03T14:50:21.724Z,4210.1
2023-02-03T14:56:00.249Z,4212
2023-02-03T15:01:40.819Z,4220.5
2023-02-03T15:07:17.215Z,4220
2023-02-03T15:12:52.444Z,4208.6
2023-02-03T15:18:28.072Z,4221.8
2023-02-03T15:24:07.278Z,4209.6
2023-02-03T15:29:43.493Z,4219.2
2023-02-03T15:35:36.634Z,4194.4
2023-02-03T15:41:12.055Z,4199.4
2023-02-03T15:46:49.758Z,4189.3
2023-02-03T15:52:25.376Z,4195.2
2023-02-03T15:58:07.524Z,4192.5
2023-02-03T16:03:43.274Z,4193.2
2023-02-03T16:09:22.507Z,4185.7
2023-02-03T16:15:01.565Z,4184
2023-02-03T16:20:39.567Z,4184.1
2023-02-03T16:26:15.254Z,4179
2023-02-03T16:31:54.645Z,4177.6
2023-02-03T16:37:29.839Z,4173.8
2023-02-03T16:43:06.775Z,4174.1
2023-02-03T16:48:46.819Z,4173.1
2023-02-03T16:54:32.648Z,4173.4
2023-02-03T17:00:20.808Z,4168.2
2023-02-03T17:06:00.903Z,4168.9
2023-02-03T17:11:36.185Z,4164.6
2023-02-03T17:17:11.461Z,4168.2
2023-02-03T17:22:46.553Z,4164.9
2023-02-03T17:28:22.195Z,4164.2
2023-02-03T17:33:58.882Z,4166.2
2023-02-03T17:54:26.106Z,4159
2023-02-03T18:00:01.083Z,4160
2023-02-03T18:05:36.222Z,4156
2023-02-03T18:11:14.267Z,4155.2
2023-02-03T18:16:55.726Z,4160.9
2023-02-03T18:22:30.789Z,4152.3
2023-02-03T18:28:06.621Z,4154.8
2023-02-03T18:33:41.753Z,4152.2
2023-02-03T18:39:17.485Z,4155.3
2023-02-03T18:44:52.634Z,4155.3
2023-02-03T18:50:30.978Z,4151.5
2023-02-03T18:56:09.024Z,4150.1
2023-02-03T19:01:49.334Z,4151.2
2023-02-03T19:07:28.784Z,4147.8
2023-02-03T19:13:17.237Z,4150.5
2023-02-03T19:19:06.448Z,4148.3
2023-02-03T19:24:41.364Z,4145.6
2023-02-03T19:30:24.625Z,4148.6
2023-02-03T19:36:01.979Z,4145.1
2023-02-03T19:41:38.046Z,4145.8
2023-02-03T19:47:35.107Z,4142.4
2023-02-03T19:53:09.267Z,4145.1
2023-02-03T19:58:44.642Z,4141.6
2023-02-03T20:04:22.895Z,4141.1
2023-02-03T20:10:00.574Z,4140.6
2023-02-03T20:15:46.410Z,4141.9
2023-02-03T20:21:26.182Z,4140.9
2023-02-03T20:27:01.679Z,4142.8
2023-02-03T20:32:40.477Z,4141.8
2023-02-03T20:38:31.575Z,4139.6
2023-02-03T20:44:25.840Z,4137.8
2023-02-03T20:50:45.947Z,4136.1
2023-02-03T20:56:36.687Z,4134.4
2023-02-03T21:02:12.805Z,4132.2
2023-02-03T21:07:53.168Z,4134.4
2023-02-03T21:13:28.738Z,4133.9
2023-02-03T21:19:04.722Z,4131.6
2023-02-03T21:24:48.671Z,4134.7
2023-02-03T21:30:28.288Z,4131.9
2023-02-03T21:36:06.436Z,4129.5
2023-02-03T21:41:50.852Z,4129
2023-02-03T21:47:47.766Z,4122.2
2023-02-03T21:53:20.576Z,4129.2
2023-02-03T21:59:43.110Z,4130.2
2023-02-03T22:05:25.948Z,4130.9
2023-02-03T22:11:05.272Z,4132.4
2023-02-03T22:16:42.752Z,4132.9
2023-02-03T22:22:19.122Z,4135.1
2023-02-03T22:27:55.875Z,4135.1
2023-02-03T22:33:42.648Z,4129.5
2023-02-03T22:39:38.623Z,4134.7
2023-02-03T22:45:13.832Z,4134.2
2023-02-03T22:50:51.752Z,4133.4
2023-02-03T22:56:27.277Z,4132.9
2023-02-03T23:02:02.708Z,4132.1
2023-02-03T23:07:37.701Z,4132.4
2023-02-03T23:13:12.652Z,4136.9
2023-02-03T23:18:48.037Z,4134.4
2023-02-03T23:24:22.925Z,4135.4
2023-02-03T23:30:13.191Z,4132.7
2023-02-03T23:35:49.400Z,4132.2
2023-02-03T23:41:28.336Z,4134.6
2023-02-03T23:47:25.277Z,4127.9
2023-02-03T23:52:59.526Z,4132.6
2023-02-03T23:58:34.473Z,4131.9
